sensor_id;sensor_type;location;lat;lon;timestamp;temperature;humidity
10437;DHT22;5265;50.006;9.202;2022-08-23T00:02:08;19.80;99.30
10437;DHT22;5265;50.006;9.202;2022-08-23T00:04:36;19.80;99.40
10437;DHT22;5265;50.006;9.202;2022-08-23T00:07:04;19.70;99.40
10437;DHT22;5265;50.006;9.202;2022-08-23T00:09:33;19.80;99.50
10437;DHT22;5265;50.006;9.202;2022-08-23T00:12:06;19.80;99.50
10437;DHT22;5265;50.006;9.202;2022-08-23T00:14:35;19.80;99.60
10437;DHT22;5265;50.006;9.202;2022-08-23T00:17:02;19.80;99.50
10437;DHT22;5265;50.006;9.202;2022-08-23T00:19:30;19.80;99.60
10437;DHT22;5265;50.006;9.202;2022-08-23T00:21:57;19.70;99.50
10437;DHT22;5265;50.006;9.202;2022-08-23T00:24:25;19.70;99.70
10437;DHT22;5265;50.006;9.202;2022-08-23T00:26:58;19.80;99.70
10437;DHT22;5265;50.006;9.202;2022-08-23T00:29:27;19.80;99.70
10437;DHT22;5265;50.006;9.202;2022-08-23T00:31:54;19.80;99.70
10437;DHT22;5265;50.006;9.202;2022-08-23T00:34:22;19.80;99.70
10437;DHT22;5265;50.006;9.202;2022-08-23T00:36:49;19.80;99.90
10437;DHT22;5265;50.006;9.202;2022-08-23T00:39:17;19.70;99.90
10437;DHT22;5265;50.006;9.202;2022-08-23T00:41:45;19.70;99.90
10437;DHT22;5265;50.006;9.202;2022-08-23T00:44:16;19.60;99.90
10437;DHT22;5265;50.006;9.202;2022-08-23T00:47:02;19.60;99.90
10437;DHT22;5265;50.006;9.202;2022-08-23T00:49:53;19.60;99.90
10437;DHT22;5265;50.006;9.202;2022-08-23T00:52:23;19.60;99.90
10437;DHT22;5265;50.006;9.202;2022-08-23T00:54:53;19.50;99.90
10437;DHT22;5265;50.006;9.202;2022-08-23T00:57:21;19.50;99.90
10437;DHT22;5265;50.006;9.202;2022-08-23T00:59:49;19.50;99.90
10437;DHT22;5265;50.006;9.202;2022-08-23T01:02:16;19.40;99.90
10437;DHT22;5265;50.006;9.202;2022-08-23T01:04:45;19.30;99.90
10437;DHT22;5265;50.006;9.202;2022-08-23T01:07:17;19.30;99.90
10437;DHT22;5265;50.006;9.202;2022-08-23T01:09:47;19.30;99.90
10437;DHT22;5265;50.006;9.202;2022-08-23T01:12:16;19.30;99.90
10437;DHT22;5265;50.006;9.202;2022-08-23T01:14:46;19.20;99.90
10437;DHT22;5265;50.006;9.202;2022-08-23T01:17:17;19.20;99.90
10437;DHT22;5265;50.006;9.202;2022-08-23T01:19:46;19.20;99.90
10437;DHT22;5265;50.006;9.202;2022-08-23T01:22:14;19.20;99.90
10437;DHT22;5265;50.006;9.202;2022-08-23T01:24:44;19.10;99.90
10437;DHT22;5265;50.006;9.202;2022-08-23T01:27:12;19.10;99.90
10437;DHT22;5265;50.006;9.202;2022-08-23T01:29:40;19.00;99.90
10437;DHT22;5265;50.006;9.202;2022-08-23T01:32:07;19.00;99.90
10437;DHT22;5265;50.006;9.202;2022-08-23T01:34:35;18.90;99.90
10437;DHT22;5265;50.006;9.202;2022-08-23T01:37:03;18.80;99.90
10437;DHT22;5265;50.006;9.202;2022-08-23T01:39:31;18.80;99.90
10437;DHT22;5265;50.006;9.202;2022-08-23T01:41:59;18.70;99.90
10437;DHT22;5265;50.006;9.202;2022-08-23T01:44:27;18.80;99.90
10437;DHT22;5265;50.006;9.202;2022-08-23T01:46:55;18.80;99.90
10437;DHT22;5265;50.006;9.202;2022-08-23T01:49:22;18.80;99.90
10437;DHT22;5265;50.006;9.202;2022-08-23T01:51:50;18.70;99.90
10437;DHT22;5265;50.006;9.202;2022-08-23T01:54:18;18.70;99.90
10437;DHT22;5265;50.006;9.202;2022-08-23T01:56:46;18.60;99.90
10437;DHT22;5265;50.006;9.202;2022-08-23T01:59:15;18.70;99.90
10437;DHT22;5265;50.006;9.202;2022-08-23T02:01:46;18.70;99.90
10437;DHT22;5265;50.006;9.202;2022-08-23T02:04:14;18.70;99.90
10437;DHT22;5265;50.006;9.202;2022-08-23T02:06:41;18.70;99.90
10437;DHT22;5265;50.006;9.202;2022-08-23T02:09:13;18.60;99.90
10437;DHT22;5265;50.006;9.202;2022-08-23T02:11:40;18.70;99.90
10437;DHT22;5265;50.006;9.202;2022-08-23T02:14:10;18.60;99.90
10437;DHT22;5265;50.006;9.202;2022-08-23T02:16:52;18.50;99.90
10437;DHT22;5265;50.006;9.202;2022-08-23T02:19:20;18.50;99.90
10437;DHT22;5265;50.006;9.202;2022-08-23T02:21:48;18.40;99.90
10437;DHT22;5265;50.006;9.202;2022-08-23T02:24:16;18.40;99.90
10437;DHT22;5265;50.006;9.202;2022-08-23T02:26:45;18.30;99.90
10437;DHT22;5265;50.006;9.202;2022-08-23T02:29:13;18.20;99.90
10437;DHT22;5265;50.006;9.202;2022-08-23T02:31:42;18.20;99.90
10437;DHT22;5265;50.006;9.202;2022-08-23T02:34:11;18.10;99.90
10437;DHT22;5265;50.006;9.202;2022-08-23T02:36:40;18.10;99.90
10437;DHT22;5265;50.006;9.202;2022-08-23T02:39:08;18.00;99.90
10437;DHT22;5265;50.006;9.202;2022-08-23T02:41:37;17.90;99.90
10437;DHT22;5265;50.006;9.202;2022-08-23T02:44:07;17.90;99.90
10437;DHT22;5265;50.006;9.202;2022-08-23T02:46:36;17.90;99.90
10437;DHT22;5265;50.006;9.202;2022-08-23T02:49:04;17.80;99.90
10437;DHT22;5265;50.006;9.202;2022-08-23T02:51:33;17.70;99.90
10437;DHT22;5265;50.006;9.202;2022-08-23T02:54:00;17.70;99.90
10437;DHT22;5265;50.006;9.202;2022-08-23T02:56:28;17.70;99.90
10437;DHT22;5265;50.006;9.202;2022-08-23T02:58:56;17.60;99.90
10437;DHT22;5265;50.006;9.202;2022-08-23T03:01:24;17.60;99.90
10437;DHT22;5265;50.006;9.202;2022-08-23T03:03:57;17.50;99.90
10437;DHT22;5265;50.006;9.202;2022-08-23T03:06:26;17.40;99.90
10437;DHT22;5265;50.006;9.202;2022-08-23T03:08:55;17.20;99.90
10437;DHT22;5265;50.006;9.202;2022-08-23T03:11:22;17.20;99.90
10437;DHT22;5265;50.006;9.202;2022-08-23T03:13:51;17.10;99.90
10437;DHT22;5265;50.006;9.202;2022-08-23T03:16:19;17.00;99.90
10437;DHT22;5265;50.006;9.202;2022-08-23T03:18:46;16.90;99.90
10437;DHT22;5265;50.006;9.202;2022-08-23T03:21:14;16.90;99.90
10437;DHT22;5265;50.006;9.202;2022-08-23T03:23:42;16.80;99.90
10437;DHT22;5265;50.006;9.202;2022-08-23T03:26:12;16.80;99.90
10437;DHT22;5265;50.006;9.202;2022-08-23T03:28:41;16.70;99.90
10437;DHT22;5265;50.006;9.202;2022-08-23T03:31:09;16.70;99.90
10437;DHT22;5265;50.006;9.202;2022-08-23T03:33:52;16.50;99.90
10437;DHT22;5265;50.006;9.202;2022-08-23T03:36:20;16.40;99.90
10437;DHT22;5265;50.006;9.202;2022-08-23T03:38:47;16.40;99.90
10437;DHT22;5265;50.006;9.202;2022-08-23T03:41:16;16.30;99.90
10437;DHT22;5265;50.006;9.202;2022-08-23T03:43:43;16.10;99.90
10437;DHT22;5265;50.006;9.202;2022-08-23T03:46:11;16.00;99.90
10437;DHT22;5265;50.006;9.202;2022-08-23T03:48:49;15.80;99.90
10437;DHT22;5265;50.006;9.202;2022-08-23T03:51:17;15.80;99.90
10437;DHT22;5265;50.006;9.202;2022-08-23T03:53:45;15.70;99.90
10437;DHT22;5265;50.006;9.202;2022-08-23T03:56:21;15.70;99.90
10437;DHT22;5265;50.006;9.202;2022-08-23T03:58:49;15.70;99.90
10437;DHT22;5265;50.006;9.202;2022-08-23T04:01:16;15.60;99.90
10437;DHT22;5265;50.006;9.202;2022-08-23T04:03:44;15.50;99.90
10437;DHT22;5265;50.006;9.202;2022-08-23T04:06:12;15.50;99.90
10437;DHT22;5265;50.006;9.202;2022-08-23T04:08:40;15.60;99.90
10437;DHT22;5265;50.006;9.202;2022-08-23T04:11:08;15.60;99.90
10437;DHT22;5265;50.006;9.202;2022-08-23T04:13:40;15.70;99.90
10437;DHT22;5265;50.006;9.202;2022-08-23T04:16:07;15.80;99.90
10437;DHT22;5265;50.006;9.202;2022-08-23T04:18:36;15.80;99.90
10437;DHT22;5265;50.006;9.202;2022-08-23T04:21:08;15.90;99.90
10437;DHT22;5265;50.006;9.202;2022-08-23T04:23:38;16.00;99.90
10437;DHT22;5265;50.006;9.202;2022-08-23T04:26:06;16.00;99.90
10437;DHT22;5265;50.006;9.202;2022-08-23T04:28:34;16.10;99.90
10437;DHT22;5265;50.006;9.202;2022-08-23T04:31:03;16.20;99.90
10437;DHT22;5265;50.006;9.202;2022-08-23T04:33:31;16.30;99.90
10437;DHT22;5265;50.006;9.202;2022-08-23T04:35:59;16.40;99.90
10437;DHT22;5265;50.006;9.202;2022-08-23T04:38:27;16.30;99.90
10437;DHT22;5265;50.006;9.202;2022-08-23T04:40:59;16.30;99.90
10437;DHT22;5265;50.006;9.202;2022-08-23T04:43:45;16.30;99.90
10437;DHT22;5265;50.006;9.202;2022-08-23T04:46:15;16.30;99.90
10437;DHT22;5265;50.006;9.202;2022-08-23T04:48:45;16.30;99.90
10437;DHT22;5265;50.006;9.202;2022-08-23T04:51:13;16.30;99.90
10437;DHT22;5265;50.006;9.202;2022-08-23T04:53:41;16.20;99.90
10437;DHT22;5265;50.006;9.202;2022-08-23T04:56:38;16.20;99.90
10437;DHT22;5265;50.006;9.202;2022-08-23T04:59:06;16.20;99.90
10437;DHT22;5265;50.006;9.202;2022-08-23T05:01:35;16.20;99.90
10437;DHT22;5265;50.006;9.202;2022-08-23T05:04:03;16.20;99.90
10437;DHT22;5265;50.006;9.202;2022-08-23T05:06:32;16.20;99.90
10437;DHT22;5265;50.006;9.202;2022-08-23T05:08:59;16.20;99.90
10437;DHT22;5265;50.006;9.202;2022-08-23T05:11:28;16.10;99.90
10437;DHT22;5265;50.006;9.202;2022-08-23T05:13:55;16.10;99.90
10437;DHT22;5265;50.006;9.202;2022-08-23T05:16:23;16.20;99.90
10437;DHT22;5265;50.006;9.202;2022-08-23T05:18:59;16.30;99.90
10437;DHT22;5265;50.006;9.202;2022-08-23T05:21:29;16.30;99.90
10437;DHT22;5265;50.006;9.202;2022-08-23T05:23:57;16.30;99.90
10437;DHT22;5265;50.006;9.202;2022-08-23T05:26:25;16.40;99.90
10437;DHT22;5265;50.006;9.202;2022-08-23T05:28:52;16.50;99.90
10437;DHT22;5265;50.006;9.202;2022-08-23T05:31:25;16.60;99.90
10437;DHT22;5265;50.006;9.202;2022-08-23T05:33:57;16.80;99.90
10437;DHT22;5265;50.006;9.202;2022-08-23T05:36:36;16.80;99.90
10437;DHT22;5265;50.006;9.202;2022-08-23T05:39:04;17.00;99.90
10437;DHT22;5265;50.006;9.202;2022-08-23T05:41:34;17.10;99.90
10437;DHT22;5265;50.006;9.202;2022-08-23T05:44:01;17.20;99.90
10437;DHT22;5265;50.006;9.202;2022-08-23T05:46:29;17.40;99.90
10437;DHT22;5265;50.006;9.202;2022-08-23T05:49:12;17.60;99.90
10437;DHT22;5265;50.006;9.202;2022-08-23T05:51:40;17.70;99.90
10437;DHT22;5265;50.006;9.202;2022-08-23T05:54:09;17.90;99.90
10437;DHT22;5265;50.006;9.202;2022-08-23T05:56:37;18.00;99.90
10437;DHT22;5265;50.006;9.202;2022-08-23T05:59:09;18.10;99.90
10437;DHT22;5265;50.006;9.202;2022-08-23T06:01:40;18.30;99.90
10437;DHT22;5265;50.006;9.202;2022-08-23T06:04:13;18.40;99.90
10437;DHT22;5265;50.006;9.202;2022-08-23T06:06:43;18.50;99.90
10437;DHT22;5265;50.006;9.202;2022-08-23T06:09:11;18.60;99.90
10437;DHT22;5265;50.006;9.202;2022-08-23T06:11:41;18.80;99.90
10437;DHT22;5265;50.006;9.202;2022-08-23T06:14:09;18.90;99.90
10437;DHT22;5265;50.006;9.202;2022-08-23T06:16:37;19.00;99.90
10437;DHT22;5265;50.006;9.202;2022-08-23T06:19:06;19.10;99.90
10437;DHT22;5265;50.006;9.202;2022-08-23T06:21:46;19.20;99.90
10437;DHT22;5265;50.006;9.202;2022-08-23T06:24:21;19.30;99.90
10437;DHT22;5265;50.006;9.202;2022-08-23T06:27:05;19.40;99.90
10437;DHT22;5265;50.006;9.202;2022-08-23T06:29:33;19.60;99.90
10437;DHT22;5265;50.006;9.202;2022-08-23T06:32:20;19.70;99.90
10437;DHT22;5265;50.006;9.202;2022-08-23T06:35:07;19.80;99.90
10437;DHT22;5265;50.006;9.202;2022-08-23T06:37:53;19.90;99.90
10437;DHT22;5265;50.006;9.202;2022-08-23T06:40:39;20.00;99.90
10437;DHT22;5265;50.006;9.202;2022-08-23T06:43:26;20.10;99.90
10437;DHT22;5265;50.006;9.202;2022-08-23T06:46:14;20.30;99.90
10437;DHT22;5265;50.006;9.202;2022-08-23T06:48:43;20.40;99.90
10437;DHT22;5265;50.006;9.202;2022-08-23T06:51:10;20.50;99.90
10437;DHT22;5265;50.006;9.202;2022-08-23T06:54:00;20.50;99.90
10437;DHT22;5265;50.006;9.202;2022-08-23T06:56:46;20.60;99.90
10437;DHT22;5265;50.006;9.202;2022-08-23T06:59:20;20.70;99.90
10437;DHT22;5265;50.006;9.202;2022-08-23T07:02:10;20.80;99.90
10437;DHT22;5265;50.006;9.202;2022-08-23T07:04:57;20.90;99.90
10437;DHT22;5265;50.006;9.202;2022-08-23T07:07:27;21.00;99.90
10437;DHT22;5265;50.006;9.202;2022-08-23T07:09:57;21.10;99.90
10437;DHT22;5265;50.006;9.202;2022-08-23T07:12:25;21.10;99.90
10437;DHT22;5265;50.006;9.202;2022-08-23T07:14:52;21.20;99.90
10437;DHT22;5265;50.006;9.202;2022-08-23T07:17:21;21.20;99.90
10437;DHT22;5265;50.006;9.202;2022-08-23T07:19:49;21.20;99.90
10437;DHT22;5265;50.006;9.202;2022-08-23T07:22:16;21.30;99.90
10437;DHT22;5265;50.006;9.202;2022-08-23T07:24:45;21.40;99.90
10437;DHT22;5265;50.006;9.202;2022-08-23T07:27:15;21.50;99.90
10437;DHT22;5265;50.006;9.202;2022-08-23T07:29:53;21.60;99.90
10437;DHT22;5265;50.006;9.202;2022-08-23T07:32:21;21.60;99.90
10437;DHT22;5265;50.006;9.202;2022-08-23T07:34:49;21.70;99.90
10437;DHT22;5265;50.006;9.202;2022-08-23T07:37:17;21.80;99.90
10437;DHT22;5265;50.006;9.202;2022-08-23T07:39:44;21.90;99.90
10437;DHT22;5265;50.006;9.202;2022-08-23T07:42:12;22.00;99.90
10437;DHT22;5265;50.006;9.202;2022-08-23T07:44:40;22.10;99.90
10437;DHT22;5265;50.006;9.202;2022-08-23T07:47:08;22.20;99.90
10437;DHT22;5265;50.006;9.202;2022-08-23T07:49:35;22.30;99.90
10437;DHT22;5265;50.006;9.202;2022-08-23T07:52:03;22.40;99.90
10437;DHT22;5265;50.006;9.202;2022-08-23T07:54:30;22.50;99.90
10437;DHT22;5265;50.006;9.202;2022-08-23T07:57:08;22.60;99.90
10437;DHT22;5265;50.006;9.202;2022-08-23T08:00:03;22.70;99.90
10437;DHT22;5265;50.006;9.202;2022-08-23T08:02:59;22.80;99.90
10437;DHT22;5265;50.006;9.202;2022-08-23T08:05:38;22.90;99.90
10437;DHT22;5265;50.006;9.202;2022-08-23T08:08:07;23.10;99.90
10437;DHT22;5265;50.006;9.202;2022-08-23T08:10:35;23.20;99.90
10437;DHT22;5265;50.006;9.202;2022-08-23T08:13:03;23.20;99.90
10437;DHT22;5265;50.006;9.202;2022-08-23T08:15:32;23.30;99.90
10437;DHT22;5265;50.006;9.202;2022-08-23T08:18:05;23.40;99.90
10437;DHT22;5265;50.006;9.202;2022-08-23T08:21:12;23.50;99.90
10437;DHT22;5265;50.006;9.202;2022-08-23T08:23:59;23.60;99.90
10437;DHT22;5265;50.006;9.202;2022-08-23T08:26:42;23.80;99.90
10437;DHT22;5265;50.006;9.202;2022-08-23T08:29:10;24.00;99.90
10437;DHT22;5265;50.006;9.202;2022-08-23T08:31:42;24.00;99.90
10437;DHT22;5265;50.006;9.202;2022-08-23T08:34:10;24.20;99.90
10437;DHT22;5265;50.006;9.202;2022-08-23T08:36:38;24.30;99.90
10437;DHT22;5265;50.006;9.202;2022-08-23T08:39:11;24.40;99.90
10437;DHT22;5265;50.006;9.202;2022-08-23T08:41:47;24.40;99.90
10437;DHT22;5265;50.006;9.202;2022-08-23T08:44:22;24.60;99.90
10437;DHT22;5265;50.006;9.202;2022-08-23T08:46:53;24.70;99.90
10437;DHT22;5265;50.006;9.202;2022-08-23T08:49:24;24.80;99.90
10437;DHT22;5265;50.006;9.202;2022-08-23T08:51:59;25.00;99.90
10437;DHT22;5265;50.006;9.202;2022-08-23T08:54:28;25.00;99.90
10437;DHT22;5265;50.006;9.202;2022-08-23T08:56:56;25.10;99.90
10437;DHT22;5265;50.006;9.202;2022-08-23T08:59:26;25.30;99.90
10437;DHT22;5265;50.006;9.202;2022-08-23T09:01:55;25.40;99.70
10437;DHT22;5265;50.006;9.202;2022-08-23T09:04:32;25.50;99.50
10437;DHT22;5265;50.006;9.202;2022-08-23T09:07:06;25.70;99.30
10437;DHT22;5265;50.006;9.202;2022-08-23T09:09:56;25.70;99.10
10437;DHT22;5265;50.006;9.202;2022-08-23T09:12:30;25.90;98.40
10437;DHT22;5265;50.006;9.202;2022-08-23T09:15:14;26.00;98.40
10437;DHT22;5265;50.006;9.202;2022-08-23T09:17:48;26.10;98.60
10437;DHT22;5265;50.006;9.202;2022-08-23T09:20:17;26.20;98.10
10437;DHT22;5265;50.006;9.202;2022-08-23T09:22:49;26.30;98.00
10437;DHT22;5265;50.006;9.202;2022-08-23T09:25:26;26.40;97.70
10437;DHT22;5265;50.006;9.202;2022-08-23T09:28:11;26.50;97.30
10437;DHT22;5265;50.006;9.202;2022-08-23T09:30:47;26.60;97.20
10437;DHT22;5265;50.006;9.202;2022-08-23T09:33:17;26.70;97.30
10437;DHT22;5265;50.006;9.202;2022-08-23T09:35:56;26.80;97.10
10437;DHT22;5265;50.006;9.202;2022-08-23T09:38:29;26.90;96.70
10437;DHT22;5265;50.006;9.202;2022-08-23T09:41:01;27.10;96.30
10437;DHT22;5265;50.006;9.202;2022-08-23T09:43:43;27.10;96.40
10437;DHT22;5265;50.006;9.202;2022-08-23T09:46:23;27.20;96.20
10437;DHT22;5265;50.006;9.202;2022-08-23T09:48:52;27.30;95.90
10437;DHT22;5265;50.006;9.202;2022-08-23T09:51:27;27.30;95.90
10437;DHT22;5265;50.006;9.202;2022-08-23T09:54:04;27.40;95.70
10437;DHT22;5265;50.006;9.202;2022-08-23T09:56:33;27.50;95.20
10437;DHT22;5265;50.006;9.202;2022-08-23T09:59:01;27.70;94.50
10437;DHT22;5265;50.006;9.202;2022-08-23T10:01:39;27.80;93.90
10437;DHT22;5265;50.006;9.202;2022-08-23T10:04:14;27.80;93.80
10437;DHT22;5265;50.006;9.202;2022-08-23T10:06:43;27.80;93.90
10437;DHT22;5265;50.006;9.202;2022-08-23T10:09:20;27.90;93.20
10437;DHT22;5265;50.006;9.202;2022-08-23T10:11:49;27.90;93.20
10437;DHT22;5265;50.006;9.202;2022-08-23T10:14:21;27.90;93.00
10437;DHT22;5265;50.006;9.202;2022-08-23T10:16:53;28.00;92.70
10437;DHT22;5265;50.006;9.202;2022-08-23T10:19:25;28.10;92.20
10437;DHT22;5265;50.006;9.202;2022-08-23T10:21:56;28.20;92.20
10437;DHT22;5265;50.006;9.202;2022-08-23T10:24:28;28.30;92.10
10437;DHT22;5265;50.006;9.202;2022-08-23T10:27:06;28.30;92.10
10437;DHT22;5265;50.006;9.202;2022-08-23T10:29:58;28.40;91.90
10437;DHT22;5265;50.006;9.202;2022-08-23T10:32:29;28.50;91.10
10437;DHT22;5265;50.006;9.202;2022-08-23T10:35:10;28.50;91.40
10437;DHT22;5265;50.006;9.202;2022-08-23T10:37:50;28.50;91.40
10437;DHT22;5265;50.006;9.202;2022-08-23T10:40:23;28.60;91.30
10437;DHT22;5265;50.006;9.202;2022-08-23T10:43:00;28.70;91.10
10437;DHT22;5265;50.006;9.202;2022-08-23T10:45:35;28.70;90.60
10437;DHT22;5265;50.006;9.202;2022-08-23T10:48:16;28.90;90.70
10437;DHT22;5265;50.006;9.202;2022-08-23T10:50:46;28.90;91.10
10437;DHT22;5265;50.006;9.202;2022-08-23T10:53:15;29.00;90.20
10437;DHT22;5265;50.006;9.202;2022-08-23T10:55:44;29.10;89.20
10437;DHT22;5265;50.006;9.202;2022-08-23T10:58:35;29.00;90.00
10437;DHT22;5265;50.006;9.202;2022-08-23T11:01:03;29.00;90.10
10437;DHT22;5265;50.006;9.202;2022-08-23T11:03:33;29.10;89.70
10437;DHT22;5265;50.006;9.202;2022-08-23T11:09:00;29.10;89.10
10437;DHT22;5265;50.006;9.202;2022-08-23T11:11:31;29.10;90.00
10437;DHT22;5265;50.006;9.202;2022-08-23T11:14:01;29.20;88.90
10437;DHT22;5265;50.006;9.202;2022-08-23T11:16:29;29.40;88.30
10437;DHT22;5265;50.006;9.202;2022-08-23T11:18:58;29.40;89.00
10437;DHT22;5265;50.006;9.202;2022-08-23T11:21:40;29.50;88.60
10437;DHT22;5265;50.006;9.202;2022-08-23T11:24:30;29.50;88.30
10437;DHT22;5265;50.006;9.202;2022-08-23T11:27:00;29.50;87.80
10437;DHT22;5265;50.006;9.202;2022-08-23T11:29:39;29.80;88.30
10437;DHT22;5265;50.006;9.202;2022-08-23T11:32:29;29.90;87.30
10437;DHT22;5265;50.006;9.202;2022-08-23T11:35:02;30.00;87.30
10437;DHT22;5265;50.006;9.202;2022-08-23T11:40:15;29.50;85.60
10437;DHT22;5265;50.006;9.202;2022-08-23T11:43:02;29.70;87.00
10437;DHT22;5265;50.006;9.202;2022-08-23T11:45:36;29.80;86.30
10437;DHT22;5265;50.006;9.202;2022-08-23T11:48:10;29.80;86.10
10437;DHT22;5265;50.006;9.202;2022-08-23T11:50:44;29.90;84.70
10437;DHT22;5265;50.006;9.202;2022-08-23T11:53:21;29.70;85.10
10437;DHT22;5265;50.006;9.202;2022-08-23T11:56:03;29.70;85.90
10437;DHT22;5265;50.006;9.202;2022-08-23T11:58:49;29.80;84.80
10437;DHT22;5265;50.006;9.202;2022-08-23T12:01:26;29.80;85.00
10437;DHT22;5265;50.006;9.202;2022-08-23T12:03:54;30.00;84.20
10437;DHT22;5265;50.006;9.202;2022-08-23T12:06:34;29.80;83.90
10437;DHT22;5265;50.006;9.202;2022-08-23T12:09:03;30.00;84.10
10437;DHT22;5265;50.006;9.202;2022-08-23T12:14:33;30.00;83.80
10437;DHT22;5265;50.006;9.202;2022-08-23T12:17:03;30.20;84.30
10437;DHT22;5265;50.006;9.202;2022-08-23T12:19:31;30.30;84.20
10437;DHT22;5265;50.006;9.202;2022-08-23T12:22:04;30.50;83.20
10437;DHT22;5265;50.006;9.202;2022-08-23T12:24:33;30.80;84.10
10437;DHT22;5265;50.006;9.202;2022-08-23T12:27:07;30.90;83.60
10437;DHT22;5265;50.006;9.202;2022-08-23T12:29:51;31.10;82.30
10437;DHT22;5265;50.006;9.202;2022-08-23T12:32:20;31.20;82.50
10437;DHT22;5265;50.006;9.202;2022-08-23T12:34:55;31.10;82.30
10437;DHT22;5265;50.006;9.202;2022-08-23T12:37:27;30.80;82.80
10437;DHT22;5265;50.006;9.202;2022-08-23T12:39:56;31.00;82.60
10437;DHT22;5265;50.006;9.202;2022-08-23T12:42:25;31.20;81.40
10437;DHT22;5265;50.006;9.202;2022-08-23T12:45:02;31.60;82.60
10437;DHT22;5265;50.006;9.202;2022-08-23T12:47:30;32.00;81.60
10437;DHT22;5265;50.006;9.202;2022-08-23T12:49:58;32.30;80.00
10437;DHT22;5265;50.006;9.202;2022-08-23T12:52:28;32.30;78.90
10437;DHT22;5265;50.006;9.202;2022-08-23T12:54:56;32.00;80.10
10437;DHT22;5265;50.006;9.202;2022-08-23T12:57:31;32.20;79.70
10437;DHT22;5265;50.006;9.202;2022-08-23T13:00:04;32.40;80.40
10437;DHT22;5265;50.006;9.202;2022-08-23T13:02:32;32.20;80.50
10437;DHT22;5265;50.006;9.202;2022-08-23T13:05:02;32.10;80.10
10437;DHT22;5265;50.006;9.202;2022-08-23T13:07:31;32.10;80.20
10437;DHT22;5265;50.006;9.202;2022-08-23T13:09:59;32.20;80.10
10437;DHT22;5265;50.006;9.202;2022-08-23T13:12:26;32.20;79.40
10437;DHT22;5265;50.006;9.202;2022-08-23T13:14:54;32.40;79.90
10437;DHT22;5265;50.006;9.202;2022-08-23T13:17:31;32.50;79.30
10437;DHT22;5265;50.006;9.202;2022-08-23T13:20:12;32.50;79.50
10437;DHT22;5265;50.006;9.202;2022-08-23T13:22:53;32.50;80.20
10437;DHT22;5265;50.006;9.202;2022-08-23T13:25:23;32.80;78.50
10437;DHT22;5265;50.006;9.202;2022-08-23T13:27:51;32.90;78.20
10437;DHT22;5265;50.006;9.202;2022-08-23T13:30:20;33.00;77.30
10437;DHT22;5265;50.006;9.202;2022-08-23T13:32:50;32.60;77.00
10437;DHT22;5265;50.006;9.202;2022-08-23T13:35:21;32.30;77.50
10437;DHT22;5265;50.006;9.202;2022-08-23T13:37:49;32.20;77.20
10437;DHT22;5265;50.006;9.202;2022-08-23T13:40:18;32.30;77.50
10437;DHT22;5265;50.006;9.202;2022-08-23T13:42:47;32.30;77.50
10437;DHT22;5265;50.006;9.202;2022-08-23T13:45:18;32.40;76.30
10437;DHT22;5265;50.006;9.202;2022-08-23T13:47:45;32.50;78.10
10437;DHT22;5265;50.006;9.202;2022-08-23T13:50:15;32.90;76.00
10437;DHT22;5265;50.006;9.202;2022-08-23T13:52:43;33.30;76.70
10437;DHT22;5265;50.006;9.202;2022-08-23T13:55:10;33.90;75.50
10437;DHT22;5265;50.006;9.202;2022-08-23T13:57:37;34.00;74.80
10437;DHT22;5265;50.006;9.202;2022-08-23T14:00:06;34.50;75.10
10437;DHT22;5265;50.006;9.202;2022-08-23T14:02:35;34.60;73.70
10437;DHT22;5265;50.006;9.202;2022-08-23T14:05:02;34.60;72.90
10437;DHT22;5265;50.006;9.202;2022-08-23T14:07:31;34.70;73.20
10437;DHT22;5265;50.006;9.202;2022-08-23T14:09:58;34.70;73.20
10437;DHT22;5265;50.006;9.202;2022-08-23T14:12:26;34.90;72.90
10437;DHT22;5265;50.006;9.202;2022-08-23T14:14:54;34.80;71.10
10437;DHT22;5265;50.006;9.202;2022-08-23T14:17:21;34.70;71.80
10437;DHT22;5265;50.006;9.202;2022-08-23T14:19:48;34.90;72.70
10437;DHT22;5265;50.006;9.202;2022-08-23T14:22:16;35.40;73.00
10437;DHT22;5265;50.006;9.202;2022-08-23T14:24:44;35.50;72.70
10437;DHT22;5265;50.006;9.202;2022-08-23T14:27:12;35.80;70.40
10437;DHT22;5265;50.006;9.202;2022-08-23T14:29:39;35.50;69.10
10437;DHT22;5265;50.006;9.202;2022-08-23T14:32:06;35.00;69.50
10437;DHT22;5265;50.006;9.202;2022-08-23T14:34:33;34.80;70.60
10437;DHT22;5265;50.006;9.202;2022-08-23T14:37:00;35.00;70.80
10437;DHT22;5265;50.006;9.202;2022-08-23T14:39:27;35.30;71.30
10437;DHT22;5265;50.006;9.202;2022-08-23T14:41:56;35.60;68.50
10437;DHT22;5265;50.006;9.202;2022-08-23T14:44:23;35.50;68.40
10437;DHT22;5265;50.006;9.202;2022-08-23T14:46:51;35.70;68.70
10437;DHT22;5265;50.006;9.202;2022-08-23T14:49:18;35.70;68.10
10437;DHT22;5265;50.006;9.202;2022-08-23T14:51:46;35.70;68.10
10437;DHT22;5265;50.006;9.202;2022-08-23T14:54:16;36.10;68.40
10437;DHT22;5265;50.006;9.202;2022-08-23T14:56:43;36.30;69.10
10437;DHT22;5265;50.006;9.202;2022-08-23T14:59:12;36.50;67.40
10437;DHT22;5265;50.006;9.202;2022-08-23T15:01:39;36.30;68.40
10437;DHT22;5265;50.006;9.202;2022-08-23T15:04:07;36.50;66.90
10437;DHT22;5265;50.006;9.202;2022-08-23T15:06:34;35.90;66.90
10437;DHT22;5265;50.006;9.202;2022-08-23T15:09:01;35.80;69.20
10437;DHT22;5265;50.006;9.202;2022-08-23T15:11:28;36.20;67.30
10437;DHT22;5265;50.006;9.202;2022-08-23T15:13:55;35.80;66.40
10437;DHT22;5265;50.006;9.202;2022-08-23T15:16:26;35.90;67.30
10437;DHT22;5265;50.006;9.202;2022-08-23T15:18:53;36.30;67.60
10437;DHT22;5265;50.006;9.202;2022-08-23T15:21:21;36.50;65.90
10437;DHT22;5265;50.006;9.202;2022-08-23T15:23:48;36.50;66.10
10437;DHT22;5265;50.006;9.202;2022-08-23T15:26:18;36.70;65.30
10437;DHT22;5265;50.006;9.202;2022-08-23T15:28:46;36.90;67.00
10437;DHT22;5265;50.006;9.202;2022-08-23T15:31:13;37.20;66.00
10437;DHT22;5265;50.006;9.202;2022-08-23T15:33:42;37.20;66.20
10437;DHT22;5265;50.006;9.202;2022-08-23T15:36:09;37.40;65.70
10437;DHT22;5265;50.006;9.202;2022-08-23T15:38:37;37.50;64.40
10437;DHT22;5265;50.006;9.202;2022-08-23T15:41:05;37.40;65.60
10437;DHT22;5265;50.006;9.202;2022-08-23T15:43:32;37.50;66.80
10437;DHT22;5265;50.006;9.202;2022-08-23T15:46:04;37.80;64.60
10437;DHT22;5265;50.006;9.202;2022-08-23T15:48:33;38.10;64.40
10437;DHT22;5265;50.006;9.202;2022-08-23T15:51:03;37.90;63.50
10437;DHT22;5265;50.006;9.202;2022-08-23T15:53:31;38.10;64.20
10437;DHT22;5265;50.006;9.202;2022-08-23T15:55:58;38.20;63.70
10437;DHT22;5265;50.006;9.202;2022-08-23T15:58:26;38.10;63.40
10437;DHT22;5265;50.006;9.202;2022-08-23T16:00:54;37.90;63.80
10437;DHT22;5265;50.006;9.202;2022-08-23T16:03:21;35.30;63.60
10437;DHT22;5265;50.006;9.202;2022-08-23T16:05:49;35.10;64.10
10437;DHT22;5265;50.006;9.202;2022-08-23T16:08:18;34.90;64.40
10437;DHT22;5265;50.006;9.202;2022-08-23T16:10:47;34.90;64.40
10437;DHT22;5265;50.006;9.202;2022-08-23T16:13:14;35.00;63.90
10437;DHT22;5265;50.006;9.202;2022-08-23T16:15:41;35.70;65.70
10437;DHT22;5265;50.006;9.202;2022-08-23T16:18:09;36.10;63.70
10437;DHT22;5265;50.006;9.202;2022-08-23T16:20:36;36.30;63.50